Time;durP1;ratioP1;P1;durP2;ratioP2;P2;SDS_P1;SDS_P2;PMS_P1;PMS_P2;Temp;Humidity;BMP_temperature;BMP_pressure;BME280_temperature;BME280_humidity;BME280_pressure;Samples;Min_cycle;Max_cycle;Signal;HPM_P1;HPM_P2
2021/09/03 00:01:04;;;;;;;;;10.75;10.75;;;;;23.01;45.49;101471.16;5076559;28;45269;-48
2021/09/03 00:03:31;;;;;;;;;13.00;12.00;;;;;23.01;45.35;101476.47;5076599;28;45541;-46
2021/09/03 00:05:57;;;;;;;;;11.25;10.50;;;;;23.01;45.62;101473.81;5076417;28;46437;-48
2021/09/03 00:08:23;;;;;;;;;11.75;11.75;;;;;23.01;45.67;101476.47;5076570;28;45251;-51
2021/09/03 00:10:48;;;;;;;;;14.00;11.50;;;;;22.99;45.57;101473.91;5076469;27;45173;-48
2021/09/03 00:13:14;;;;;;;;;13.00;12.00;;;;;23.00;45.48;101470.34;5076372;28;45281;-52
2021/09/03 00:15:40;;;;;;;;;13.00;11.00;;;;;23.00;45.53;101470.34;5076266;28;45574;-45
2021/09/03 00:18:05;;;;;;;;;13.50;11.75;;;;;22.99;45.71;101463.34;5077596;27;45386;-48
2021/09/03 00:20:31;;;;;;;;;13.50;11.25;;;;;22.99;45.69;101462.47;5079634;27;45309;-49
2021/09/03 00:22:56;;;;;;;;;15.25;14.00;;;;;23.00;45.62;101467.69;5080352;28;45616;-50
2021/09/03 00:25:21;;;;;;;;;13.50;12.00;;;;;22.99;45.39;101473.03;5079626;28;46291;-46
2021/09/03 00:27:47;;;;;;;;;13.50;11.00;;;;;22.98;45.69;101461.63;5079514;28;45288;-46
2021/09/03 00:30:13;;;;;;;;;12.50;11.50;;;;;22.99;45.73;101459.81;5079656;27;45471;-46
2021/09/03 00:32:39;;;;;;;;;15.00;12.25;;;;;22.99;45.82;101462.47;5079685;28;45659;-47
2021/09/03 00:35:05;;;;;;;;;14.00;14.00;;;;;23.00;45.46;101464.19;5079434;27;45486;-50
2021/09/03 00:37:31;;;;;;;;;9.00;8.25;;;;;22.99;45.66;101463.34;5079296;28;45300;-49
2021/09/03 00:39:56;;;;;;;;;13.25;12.25;;;;;22.99;45.65;101457.19;5079851;28;45794;-45
2021/09/03 00:42:21;;;;;;;;;11.50;11.50;;;;;22.99;45.80;101451.88;5079718;27;45165;-52
2021/09/03 00:44:47;;;;;;;;;13.50;11.25;;;;;22.98;45.72;101450.22;5079169;28;45607;-49
2021/09/03 00:47:12;;;;;;;;;12.00;12.00;;;;;22.98;45.79;101455.50;5079285;27;45376;-48
2021/09/03 00:49:38;;;;;;;;;11.75;11.00;;;;;22.98;45.70;101443.13;5079251;27;45945;-48
2021/09/03 00:52:05;;;;;;;;;16.75;12.25;;;;;22.99;45.73;101443.97;5079418;28;45558;-49
2021/09/03 00:54:31;;;;;;;;;12.25;12.25;;;;;22.93;45.83;101433.75;5079271;28;46409;-46
2021/09/03 00:56:57;;;;;;;;;14.25;12.25;;;;;22.98;45.90;101434.34;5079594;27;45988;-46
2021/09/03 00:59:23;;;;;;;;;15.00;11.00;;;;;22.98;45.87;101434.34;5079069;28;45584;-46
2021/09/03 01:01:48;;;;;;;;;14.50;11.50;;;;;22.98;46.04;101437.84;5079309;27;45335;-46
2021/09/03 01:04:13;;;;;;;;;11.25;11.25;;;;;22.96;45.97;101429.13;5078944;27;46446;-48
2021/09/03 01:06:39;;;;;;;;;15.75;12.00;;;;;22.96;46.14;101423.00;5078991;28;45166;-49
2021/09/03 01:09:04;;;;;;;;;13.50;13.00;;;;;22.97;45.74;101422.06;5078848;28;45321;-47
2021/09/03 01:11:30;;;;;;;;;15.50;11.25;;;;;22.97;45.97;101427.38;5079339;28;45651;-46
2021/09/03 01:13:55;;;;;;;;;15.00;13.00;;;;;22.97;46.03;101422.06;5079004;28;45420;-49
2021/09/03 01:16:21;;;;;;;;;14.25;13.00;;;;;22.97;45.87;101425.56;5078595;28;45331;-49
2021/09/03 01:18:46;;;;;;;;;13.75;12.75;;;;;22.97;45.99;101424.72;5078744;28;45352;-52
2021/09/03 01:21:11;;;;;;;;;12.00;11.00;;;;;22.96;46.00;101417.72;5078940;28;45305;-47
2021/09/03 01:23:37;;;;;;;;;12.25;12.25;;;;;22.97;45.90;101422.91;5078584;28;45486;-46
2021/09/03 01:26:04;;;;;;;;;14.50;11.50;;;;;22.94;46.07;101409.84;5078862;28;45375;-45
2021/09/03 01:28:30;;;;;;;;;13.00;11.25;;;;;22.95;45.86;101405.44;5078799;28;45380;-45
2021/09/03 01:30:55;;;;;;;;;15.25;12.00;;;;;22.96;45.98;101410.63;5078071;28;45612;-47
2021/09/03 01:33:20;;;;;;;;;12.50;12.50;;;;;22.95;46.11;101408.09;5078456;28;46625;-46
2021/09/03 01:35:46;;;;;;;;;11.25;10.25;;;;;22.95;46.13;101408.09;5078569;27;45470;-46
2021/09/03 01:38:11;;;;;;;;;12.00;10.25;;;;;22.94;46.00;101401.94;5078683;28;45331;-45
2021/09/03 01:40:37;;;;;;;;;12.50;11.75;;;;;22.95;46.27;101413.38;5078896;28;45340;-48
2021/09/03 01:43:02;;;;;;;;;15.00;13.00;;;;;22.95;45.85;101406.28;5060173;28;46340;-45
2021/09/03 01:45:28;;;;;;;;;14.75;12.75;;;;;22.95;46.04;101402.78;5078756;27;45403;-46
2021/09/03 01:47:53;;;;;;;;;11.50;11.00;;;;;22.95;46.14;101397.50;5078633;28;45453;-51
2021/09/03 01:50:18;;;;;;;;;12.25;11.50;;;;;22.96;46.13;101404.50;5078456;28;45521;-49
2021/09/03 01:52:44;;;;;;;;;13.50;13.50;;;;;22.93;46.21;101400.22;5078283;27;45530;-46
2021/09/03 01:55:09;;;;;;;;;11.25;10.75;;;;;22.95;46.23;101408.09;5078339;28;45305;-46
2021/09/03 01:57:35;;;;;;;;;15.75;12.50;;;;;22.95;46.40;101398.34;5078299;28;45247;-47
2021/09/03 02:00:00;;;;;;;;;10.50;10.50;;;;;22.95;46.57;101402.78;5078604;28;45249;-48
2021/09/03 02:02:26;;;;;;;;;13.25;12.50;;;;;22.95;46.67;101410.72;5078176;27;45288;-46
2021/09/03 02:04:51;;;;;;;;;15.75;13.00;;;;;22.94;46.08;101399.28;5078098;28;45233;-47
2021/09/03 02:07:17;;;;;;;;;14.50;11.50;;;;;22.95;46.17;101392.22;5078215;28;45302;-46
2021/09/03 02:09:42;;;;;;;;;11.50;11.25;;;;;22.94;46.26;101395.81;5078191;28;45560;-48
2021/09/03 02:12:12;;;;;;;;;13.25;13.25;;;;;22.95;46.46;101389.59;5077899;28;45310;-47
2021/09/03 02:14:37;;;;;;;;;12.25;12.25;;;;;22.94;46.12;101390.53;5077721;28;45988;-49
2021/09/03 02:17:03;;;;;;;;;12.50;12.00;;;;;22.93;46.39;101394.94;5078326;27;45304;-49
2021/09/03 02:19:28;;;;;;;;;12.75;11.75;;;;;22.93;46.55;101388.81;5078307;27;45562;-48
2021/09/03 02:21:54;;;;;;;;;14.00;12.75;;;;;22.93;46.28;101394.09;5077870;28;46811;-48
2021/09/03 02:24:19;;;;;;;;;9.75;9.50;;;;;22.93;46.48;101396.75;5077816;27;45227;-49
2021/09/03 02:26:44;;;;;;;;;13.75;13.75;;;;;22.93;46.17;101386.16;5077806;28;45225;-46
2021/09/03 02:29:10;;;;;;;;;11.25;11.25;;;;;22.93;46.59;101391.44;5078078;27;45232;-51
2021/09/03 02:31:35;;;;;;;;;14.25;11.00;;;;;22.92;46.44;101392.38;5077463;28;46829;-49
2021/09/03 02:34:00;;;;;;;;;10.75;10.75;;;;;22.93;46.58;101394.09;5077851;27;45216;-47
2021/09/03 02:36:26;;;;;;;;;10.75;10.75;;;;;22.92;46.45;101397.69;5078095;27;45332;-47
2021/09/03 02:38:51;;;;;;;;;11.25;11.25;;;;;22.93;46.52;101400.22;5077825;28;45245;-48
2021/09/03 02:41:16;;;;;;;;;14.00;12.25;;;;;22.93;46.52;101399.38;5076770;28;46039;-47
2021/09/03 02:43:41;;;;;;;;;12.75;11.75;;;;;22.92;46.69;101392.38;5077616;27;45260;-46
2021/09/03 02:46:07;;;;;;;;;12.00;12.00;;;;;22.91;46.52;101380.97;5077463;27;45240;-47
2021/09/03 02:48:32;;;;;;;;;12.75;11.25;;;;;22.92;46.57;101384.47;5077940;28;45256;-47
2021/09/03 02:50:57;;;;;;;;;13.50;13.50;;;;;22.92;46.44;101381.81;5077373;28;46309;-46
2021/09/03 02:53:23;;;;;;;;;12.00;11.50;;;;;22.92;46.78;101377.41;5059017;28;45453;-46
2021/09/03 02:55:48;;;;;;;;;13.25;12.00;;;;;22.92;46.92;101379.19;5077345;28;45274;-46
2021/09/03 02:58:13;;;;;;;;;14.00;14.00;;;;;22.92;46.60;101376.53;5077434;28;45186;-47
2021/09/03 03:00:39;;;;;;;;;15.25;13.25;;;;;22.92;46.68;101381.81;5058563;28;48264;-47
2021/09/03 03:03:04;;;;;;;;;12.00;11.75;;;;;22.91;46.66;101385.41;5077470;28;45379;-49
2021/09/03 03:05:30;;;;;;;;;9.75;9.75;;;;;22.91;46.60;101380.09;5058961;28;45417;-50
2021/09/03 03:07:55;;;;;;;;;10.75;10.75;;;;;22.92;46.72;101381.81;5077308;28;45256;-48
2021/09/03 03:10:20;;;;;;;;;11.50;11.50;;;;;22.91;46.53;101372.19;5076927;28;46469;-51
2021/09/03 03:12:49;;;;;;;;;15.00;14.00;;;;;22.92;46.78;101374.75;5077115;28;45343;-49
2021/09/03 03:15:14;;;;;;;;;13.00;13.00;;;;;22.91;46.78;101377.47;5077100;28;45390;-46
2021/09/03 03:17:40;;;;;;;;;14.00;13.00;;;;;22.91;46.69;101370.41;5077395;28;45383;-45
2021/09/03 03:20:06;;;;;;;;;14.75;12.75;;;;;22.91;46.63;101366.91;5077288;28;47060;-47
2021/09/03 03:22:31;;;;;;;;;12.25;12.25;;;;;22.91;46.78;101375.69;5077046;28;45285;-49
2021/09/03 03:24:56;;;;;;;;;12.50;11.50;;;;;22.90;47.00;101370.47;5077230;27;45238;-49
2021/09/03 03:27:22;;;;;;;;;12.00;12.00;;;;;22.90;46.79;101373.13;5077131;28;45185;-49
2021/09/03 03:29:47;;;;;;;;;14.00;13.25;;;;;22.90;46.73;101368.69;5076560;27;46341;-49
2021/09/03 03:32:12;;;;;;;;;11.00;11.00;;;;;22.90;46.76;101362.53;5076869;27;45272;-48
2021/09/03 03:34:38;;;;;;;;;13.00;11.25;;;;;22.90;46.75;101351.97;5076655;28;45281;-45
2021/09/03 03:37:04;;;;;;;;;13.75;12.75;;;;;22.90;46.87;101358.13;5077327;28;45191;-51
2021/09/03 03:39:29;;;;;;;;;14.25;14.25;;;;;22.89;46.95;101353.78;5076866;28;46355;-47
2021/09/03 03:41:55;;;;;;;;;11.25;10.50;;;;;22.89;46.76;101351.13;5076666;27;45402;-47
2021/09/03 03:44:20;;;;;;;;;13.75;13.75;;;;;22.89;46.93;101353.78;5058473;28;45421;-49
2021/09/03 03:46:46;;;;;;;;;12.25;11.50;;;;;22.90;46.98;101357.25;5076950;28;45450;-46
2021/09/03 03:49:11;;;;;;;;;13.75;13.00;;;;;22.89;46.93;101355.56;5076353;28;45353;-46
2021/09/03 03:51:37;;;;;;;;;13.75;12.75;;;;;22.88;46.73;101361.78;5075372;28;45899;-46
2021/09/03 03:54:02;;;;;;;;;14.75;13.50;;;;;22.88;46.87;101357.34;5079990;28;45330;-46
2021/09/03 03:56:28;;;;;;;;;15.25;13.00;;;;;22.88;46.86;101361.78;5080693;28;45418;-46
2021/09/03 03:58:53;;;;;;;;;12.50;12.50;;;;;22.89;46.96;101358.19;5079803;28;46292;-48
2021/09/03 04:01:18;;;;;;;;;15.00;13.00;;;;;22.89;46.89;101366.13;5080040;27;45323;-45
2021/09/03 04:03:44;;;;;;;;;16.25;14.50;;;;;22.90;46.96;101370.47;5080001;27;45387;-45
2021/09/03 04:06:09;;;;;;;;;10.50;10.50;;;;;22.91;47.01;101362.47;5080410;27;45481;-48
2021/09/03 04:08:34;;;;;;;;;11.25;11.25;;;;;22.90;46.90;101357.25;5080238;28;46490;-48
2021/09/03 04:11:00;;;;;;;;;13.00;12.25;;;;;22.89;47.03;101361.72;5079622;28;45339;-46
2021/09/03 04:13:25;;;;;;;;;14.25;14.25;;;;;22.88;46.84;101367.06;5079635;28;49292;-46
2021/09/03 04:15:50;;;;;;;;;15.00;12.00;;;;;22.89;47.00;101367.00;5080008;28;45319;-46
2021/09/03 04:18:17;;;;;;;;;13.00;10.75;;;;;22.88;46.67;101361.78;5079650;28;45439;-46
2021/09/03 04:20:42;;;;;;;;;16.00;14.00;;;;;22.88;46.91;101361.78;5079620;28;45804;-45
2021/09/03 04:23:09;;;;;;;;;15.75;15.75;;;;;22.87;47.00;101354.81;5080280;28;45191;-48
2021/09/03 04:25:35;;;;;;;;;13.75;11.75;;;;;22.87;47.08;101357.47;5080295;28;45398;-46
2021/09/03 04:28:00;;;;;;;;;13.50;13.00;;;;;22.85;46.96;101361.03;5079533;27;45387;-47
2021/09/03 04:30:26;;;;;;;;;14.75;14.25;;;;;22.85;47.01;101355.75;5079516;28;45486;-47
2021/09/03 04:32:51;;;;;;;;;14.00;12.75;;;;;22.87;46.95;101357.47;5079680;27;45261;-47
2021/09/03 04:35:16;;;;;;;;;11.75;11.00;;;;;22.85;47.05;101361.03;5079711;28;45485;-50
2021/09/03 04:37:48;;;;;;;;;15.50;14.00;;;;;22.85;47.08;101358.41;5079515;28;45394;-48
2021/09/03 04:40:15;;;;;;;;;16.00;14.75;;;;;22.82;46.73;101355.09;5079361;28;45459;-48
2021/09/03 04:42:41;;;;;;;;;15.00;13.50;;;;;22.84;46.89;101354.03;5061196;28;45308;-48
2021/09/03 04:45:07;;;;;;;;;11.00;11.00;;;;;22.84;47.11;101364.63;5079840;27;45585;-51
2021/09/03 04:47:33;;;;;;;;;15.75;14.25;;;;;22.83;47.30;101368.19;5079245;27;45506;-49
2021/09/03 04:49:59;;;;;;;;;13.00;13.00;;;;;22.84;47.16;101359.34;5079166;27;45292;-47
2021/09/03 04:52:24;;;;;;;;;14.50;13.50;;;;;22.82;47.09;101355.91;5079389;28;45322;-51
2021/09/03 04:54:49;;;;;;;;;12.00;12.00;;;;;22.84;47.32;101354.03;5079493;27;45525;-45
2021/09/03 04:57:15;;;;;;;;;15.50;13.75;;;;;22.82;47.09;101348.00;5079064;28;45336;-45
2021/09/03 04:59:40;;;;;;;;;14.00;12.00;;;;;22.81;47.39;101351.56;5079292;28;45476;-47
2021/09/03 05:02:05;;;;;;;;;15.00;15.00;;;;;22.82;47.19;101345.34;5079140;28;45316;-49
2021/09/03 05:04:31;;;;;;;;;11.50;10.75;;;;;22.82;47.22;101345.34;5079009;28;45315;-49
2021/09/03 05:06:56;;;;;;;;;14.00;13.25;;;;;22.79;47.25;101328.81;5079040;28;46249;-48
2021/09/03 05:09:21;;;;;;;;;11.25;11.00;;;;;22.81;47.29;101341.00;5078758;28;45368;-52
2021/09/03 05:11:47;;;;;;;;;13.50;10.50;;;;;22.81;47.33;101340.16;5079026;28;45249;-48
2021/09/03 05:14:12;;;;;;;;;13.00;12.00;;;;;22.81;47.38;101343.63;5079249;27;45347;-47
2021/09/03 05:16:38;;;;;;;;;14.00;13.25;;;;;22.81;47.26;101335.72;5079271;28;45371;-53
2021/09/03 05:19:03;;;;;;;;;12.00;12.00;;;;;22.80;47.14;101336.66;5078998;28;45644;-47
2021/09/03 05:21:28;;;;;;;;;19.50;14.00;;;;;22.80;47.33;101347.22;5078803;28;45213;-48
2021/09/03 05:23:54;;;;;;;;;15.25;12.75;;;;;22.82;47.36;101349.78;5060913;28;45612;-53
2021/09/03 05:26:19;;;;;;;;;16.00;13.00;;;;;22.80;47.37;101352.50;5078596;28;45575;-53
2021/09/03 05:28:44;;;;;;;;;15.75;13.75;;;;;22.81;47.31;101359.50;5078449;27;45281;-52
2021/09/03 05:31:10;;;;;;;;;11.75;11.00;;;;;22.78;47.17;101349.09;5078865;28;45412;-51
2021/09/03 05:33:35;;;;;;;;;12.75;11.00;;;;;22.80;47.32;101349.84;5078729;27;45307;-55
2021/09/03 05:36:01;;;;;;;;;14.50;14.50;;;;;22.80;47.20;101347.22;5078626;28;45594;-52
2021/09/03 05:38:26;;;;;;;;;12.00;11.50;;;;;22.81;47.29;101356.84;5078399;28;45415;-51
2021/09/03 05:40:51;;;;;;;;;13.75;12.50;;;;;22.80;47.32;101349.03;5078533;28;45464;-54
2021/09/03 05:43:20;;;;;;;;;15.75;15.75;;;;;22.81;47.26;101358.66;5078701;28;45585;-52
2021/09/03 05:45:46;;;;;;;;;14.50;14.00;;;;;22.79;47.24;101353.44;5059981;28;45769;-46
2021/09/03 05:48:11;;;;;;;;;13.75;13.00;;;;;22.80;47.51;101351.66;5078521;27;45336;-48
2021/09/03 05:50:36;;;;;;;;;13.00;13.00;;;;;22.81;47.29;101359.50;5078499;28;45379;-45
2021/09/03 05:53:02;;;;;;;;;10.50;10.50;;;;;22.80;47.22;101362.25;5078584;28;45465;-49
2021/09/03 05:55:27;;;;;;;;;14.75;13.00;;;;;22.82;47.45;101365.66;5077965;28;47605;-46
2021/09/03 05:57:54;;;;;;;;;14.25;11.75;;;;;22.80;47.26;101368.38;5078284;28;45313;-49
2021/09/03 06:00:19;;;;;;;;;12.00;12.00;;;;;22.81;47.44;101364.78;5077999;28;45407;-48
2021/09/03 06:02:45;;;;;;;;;14.50;14.50;;;;;22.81;47.08;101364.78;5078299;28;45373;-45
2021/09/03 06:05:10;;;;;;;;;11.50;11.50;;;;;22.81;47.40;101363.94;5078364;27;45428;-47
2021/09/03 06:07:35;;;;;;;;;13.50;12.75;;;;;22.81;47.13;101372.72;5078167;28;45392;-50
2021/09/03 06:10:01;;;;;;;;;14.50;12.25;;;;;22.83;47.39;101367.31;5078059;28;45399;-46
2021/09/03 06:12:26;;;;;;;;;14.00;14.00;;;;;22.81;47.18;101367.44;5078233;28;45520;-46
2021/09/03 06:14:52;;;;;;;;;16.50;13.50;;;;;22.82;47.36;101369.13;5077537;28;46320;-46
2021/09/03 06:17:18;;;;;;;;;14.75;13.25;;;;;22.83;47.52;101367.31;5077347;27;45318;-47
2021/09/03 06:19:44;;;;;;;;;17.00;14.00;;;;;22.82;47.20;101361.19;5078329;28;45354;-50
2021/09/03 06:22:09;;;;;;;;;13.50;12.00;;;;;22.85;47.58;101368.97;5078111;27;45284;-50
2021/09/03 06:24:35;;;;;;;;;14.50;13.50;;;;;22.86;47.18;101375.09;5077622;28;46346;-46
2021/09/03 06:27:04;;;;;;;;;14.25;13.00;;;;;22.85;47.04;101366.31;5077623;27;45287;-45
2021/09/03 06:29:39;;;;;;;;;16.25;14.25;;;;;22.87;47.04;101365.38;5077646;27;45504;-45
2021/09/03 06:32:21;;;;;;;;;16.75;15.50;;;;;22.87;47.27;101363.59;5077988;28;45464;-45
2021/09/03 06:34:52;;;;;;;;;14.25;12.50;;;;;22.88;47.54;101353.84;5077817;27;45405;-50
2021/09/03 06:37:18;;;;;;;;;12.25;11.25;;;;;22.90;47.16;101357.25;5059276;28;45836;-48
2021/09/03 06:39:45;;;;;;;;;13.75;12.50;;;;;22.90;47.09;101360.78;5078045;28;45270;-52
2021/09/03 06:42:10;;;;;;;;;12.75;12.75;;;;;22.90;46.87;101366.06;5077693;28;45469;-46
2021/09/03 06:44:37;;;;;;;;;17.75;15.00;;;;;22.92;47.11;101355.38;5077303;28;46183;-50
2021/09/03 06:47:03;;;;;;;;;15.25;13.25;;;;;22.93;47.06;101357.09;5077370;28;45243;-49
2021/09/03 06:49:29;;;;;;;;;16.00;14.75;;;;;22.95;47.32;101356.06;5077472;27;45296;-48
2021/09/03 06:51:55;;;;;;;;;15.00;13.25;;;;;22.99;47.16;101362.88;5077697;27;45379;-50
2021/09/03 06:54:21;;;;;;;;;15.75;15.50;;;;;23.01;46.82;101365.44;5077196;28;45381;-51
2021/09/03 06:56:47;;;;;;;;;19.25;14.25;;;;;23.01;46.80;101361.00;5077533;28;45454;-46
2021/09/03 06:59:12;;;;;;;;;16.75;16.50;;;;;23.05;46.84;101366.09;5077380;28;45347;-50
2021/09/03 07:01:38;;;;;;;;;14.75;13.50;;;;;23.07;46.71;101367.72;5077408;28;45281;-47
2021/09/03 07:04:03;;;;;;;;;17.50;17.50;;;;;23.07;46.85;101367.72;5076938;27;46206;-47
2021/09/03 07:06:29;;;;;;;;;14.00;12.25;;;;;23.09;46.79;101373.78;5077148;28;45296;-48
2021/09/03 07:08:54;;;;;;;;;13.50;12.50;;;;;23.05;46.70;101366.97;5077201;27;45308;-51
2021/09/03 07:11:20;;;;;;;;;17.50;14.00;;;;;23.06;46.73;101371.31;5077432;27;45626;-52
2021/09/03 07:13:45;;;;;;;;;14.75;14.00;;;;;23.07;46.85;101373.03;5077179;28;45391;-55
2021/09/03 07:16:11;;;;;;;;;15.00;15.00;;;;;23.07;46.79;101370.38;5058862;28;45281;-54
2021/09/03 07:18:36;;;;;;;;;13.25;13.25;;;;;23.06;46.77;101371.31;5077211;28;45402;-52
2021/09/03 07:21:02;;;;;;;;;13.50;13.25;;;;;23.07;46.71;101362.44;5077320;28;45525;-49
2021/09/03 07:23:27;;;;;;;;;13.25;13.25;;;;;23.06;47.00;101355.44;5076764;28;46071;-52
2021/09/03 07:25:52;;;;;;;;;15.00;14.00;;;;;23.07;46.72;101365.09;5076729;28;45312;-52
2021/09/03 07:28:18;;;;;;;;;17.75;13.75;;;;;23.06;47.02;101363.38;5077265;28;45194;-52
2021/09/03 07:30:43;;;;;;;;;19.25;14.75;;;;;23.06;46.92;101360.75;5058988;28;45580;-54
2021/09/03 07:33:09;;;;;;;;;16.25;14.25;;;;;23.07;47.03;101364.22;5076763;28;46586;-55
2021/09/03 07:35:34;;;;;;;;;15.75;15.75;;;;;23.08;46.87;101365.94;5076733;28;45563;-51
2021/09/03 07:38:00;;;;;;;;;17.00;13.00;;;;;23.07;47.12;101370.38;5076703;28;45442;-54
2021/09/03 07:40:26;;;;;;;;;19.00;15.25;;;;;23.08;46.78;101368.56;5076944;28;45433;-51
2021/09/03 07:42:53;;;;;;;;;11.50;10.75;;;;;23.08;46.88;101369.44;5076544;28;45377;-54
2021/09/03 07:45:18;;;;;;;;;15.00;15.00;;;;;23.07;47.08;101357.16;5076774;27;45756;-52
2021/09/03 07:47:43;;;;;;;;;20.75;16.50;;;;;23.08;46.88;101356.22;5076632;28;45218;-50
2021/09/03 07:50:09;;;;;;;;;15.75;14.00;;;;;23.08;47.00;101361.50;5058506;28;45318;-52
2021/09/03 07:52:34;;;;;;;;;16.25;15.00;;;;;23.09;46.95;101355.28;5076396;27;46970;-47
2021/09/03 07:55:00;;;;;;;;;15.25;14.00;;;;;23.10;47.23;101358.75;5076558;28;45332;-49
2021/09/03 07:57:25;;;;;;;;;15.75;14.75;;;;;23.10;46.90;101364.88;5076670;27;45275;-47
2021/09/03 07:59:50;;;;;;;;;18.00;15.50;;;;;23.10;46.62;101359.59;5076506;27;45322;-48
2021/09/03 08:02:16;;;;;;;;;17.00;14.00;;;;;23.10;47.12;101367.53;5076764;28;45469;-48
2021/09/03 08:04:41;;;;;;;;;13.25;13.25;;;;;23.12;46.96;101357.72;5076517;28;45334;-51
2021/09/03 08:07:06;;;;;;;;;15.75;14.25;;;;;23.11;47.00;101356.00;5076402;27;45430;-49
2021/09/03 08:09:32;;;;;;;;;19.75;18.00;;;;;23.12;46.67;101364.81;5076503;28;45170;-52
2021/09/03 08:11:58;;;;;;;;;14.75;13.25;;;;;23.14;46.92;101360.28;5057854;28;48105;-50
2021/09/03 08:14:23;;;;;;;;;15.50;14.25;;;;;23.14;46.78;101355.00;5076215;27;45286;-49
2021/09/03 08:16:48;;;;;;;;;14.50;12.25;;;;;23.14;46.87;101366.44;5076560;27;45354;-49
2021/09/03 08:19:14;;;;;;;;;15.25;14.75;;;;;23.15;47.04;101362.84;5076377;28;45323;-48
2021/09/03 08:21:39;;;;;;;;;13.50;11.50;;;;;23.16;46.93;101355.75;5076079;28;46216;-48
2021/09/03 08:24:05;;;;;;;;;14.50;13.75;;;;;23.16;46.51;101359.25;5076118;28;45343;-48
2021/09/03 08:26:30;;;;;;;;;14.75;14.00;;;;;23.17;46.77;101366.25;5076303;28;45346;-49
2021/09/03 08:28:56;;;;;;;;;19.00;17.50;;;;;23.18;46.65;101356.50;5076292;28;45366;-48
2021/09/03 08:31:23;;;;;;;;;16.25;13.50;;;;;23.20;46.79;101353.84;5075858;28;46289;-47
2021/09/03 08:33:49;;;;;;;;;13.75;11.25;;;;;23.21;46.96;101355.50;5076291;27;45390;-47
2021/09/03 08:36:15;;;;;;;;;19.75;14.50;;;;;23.20;46.95;101353.84;5076251;28;45246;-47
2021/09/03 08:38:41;;;;;;;;;13.75;12.25;;;;;23.22;46.83;101355.44;5077181;28;45162;-47
2021/09/03 08:41:06;;;;;;;;;17.25;12.50;;;;;23.20;46.78;101346.75;5079525;27;46388;-47
2021/09/03 08:43:31;;;;;;;;;21.00;21.00;;;;;23.23;46.44;101358.91;5079295;28;45224;-49
2021/09/03 08:45:57;;;;;;;;;22.25;21.75;;;;;23.23;46.49;101345.69;5079638;27;46304;-50
2021/09/03 08:48:24;;;;;;;;;27.75;22.50;;;;;23.20;46.05;101344.09;5079630;27;45374;-52
2021/09/03 08:50:52;;;;;;;;;30.25;27.75;;;;;23.17;46.45;101345.09;5079390;28;45330;-52
2021/09/03 08:53:19;;;;;;;;;23.50;20.50;;;;;23.15;46.31;101341.69;5079422;28;45497;-50
2021/09/03 08:55:47;;;;;;;;;23.50;23.00;;;;;23.14;46.23;101339.16;5079446;28;45222;-50
2021/09/03 08:58:12;;;;;;;;;25.75;24.00;;;;;23.12;46.35;101344.50;5079691;27;45540;-51
2021/09/03 09:00:38;;;;;;;;;25.50;22.00;;;;;23.11;46.12;101341.97;5078966;28;46334;-51
2021/09/03 09:03:10;;;;;;;;;26.75;25.50;;;;;23.12;46.22;101341.03;5079368;27;45352;-53
2021/09/03 09:05:53;;;;;;;;;28.75;25.75;;;;;23.10;46.24;101348.19;5079084;28;45258;-53
2021/09/03 09:08:21;;;;;;;;;23.75;21.25;;;;;23.10;46.08;101346.38;5079636;27;45521;-51
2021/09/03 09:10:46;;;;;;;;;22.75;21.00;;;;;23.09;46.16;101342.06;5078929;27;46194;-50
2021/09/03 09:13:13;;;;;;;;;20.25;19.00;;;;;23.10;46.21;101341.09;5060833;28;45281;-49
2021/09/03 09:15:39;;;;;;;;;24.75;22.00;;;;;23.10;46.11;101346.38;5060571;28;45351;-51
2021/09/03 09:18:04;;;;;;;;;22.75;21.25;;;;;23.10;46.08;101332.31;5079484;28;45607;-52
2021/09/03 09:20:29;;;;;;;;;20.75;19.50;;;;;23.10;45.79;101343.75;5078633;28;46360;-50
2021/09/03 09:23:00;;;;;;;;;23.00;22.75;;;;;23.09;46.04;101336.78;5078798;27;45316;-48
2021/09/03 09:25:36;;;;;;;;;17.50;16.25;;;;;23.11;46.10;101334.03;5078788;27;45388;-49
2021/09/03 09:28:19;;;;;;;;;24.75;22.25;;;;;23.11;45.98;101334.88;5079119;28;45376;-52
2021/09/03 09:30:47;;;;;;;;;24.00;22.00;;;;;23.11;45.95;101334.88;5078492;28;45611;-53
2021/09/03 09:33:17;;;;;;;;;26.50;23.75;;;;;23.11;45.84;101334.03;5078541;28;45361;-51
2021/09/03 09:35:47;;;;;;;;;31.25;24.25;;;;;23.13;45.81;101333.00;5060662;28;45408;-49
2021/09/03 09:38:14;;;;;;;;;24.00;20.25;;;;;23.13;45.94;101326.88;5078925;28;45228;-50
2021/09/03 09:41:03;;;;;;;;;27.75;22.00;;;;;23.14;45.60;101326.75;5060187;28;47425;-51
2021/09/03 09:43:28;;;;;;;;;26.00;21.50;;;;;23.15;45.51;101331.13;5078128;27;45881;-49
2021/09/03 09:46:16;;;;;;;;;23.00;20.75;;;;;23.16;45.91;101326.66;5078706;28;45400;-49
2021/09/03 09:48:48;;;;;;;;;21.50;18.75;;;;;23.16;45.56;101319.59;5078598;28;45252;-49
2021/09/03 09:51:23;;;;;;;;;24.25;21.75;;;;;23.18;45.81;101319.50;5058679;28;46471;-48
2021/09/03 09:54:11;;;;;;;;;22.75;21.50;;;;;23.19;45.68;101315.06;5078097;28;45417;-48
2021/09/03 09:56:39;;;;;;;;;20.75;18.50;;;;;23.20;45.63;101316.81;5060839;28;45273;-50
2021/09/03 09:59:07;;;;;;;;;19.50;17.00;;;;;23.21;46.04;101318.50;5078240;28;45466;-50
2021/09/03 10:01:35;;;;;;;;;18.25;16.00;;;;;23.22;45.71;101313.13;5077996;28;46197;-51
2021/09/03 10:04:04;;;;;;;;;24.75;20.50;;;;;23.23;45.78;101317.47;5078020;28;45379;-48
2021/09/03 10:06:31;;;;;;;;;18.00;17.00;;;;;23.25;46.01;101309.44;5078447;28;45418;-48
2021/09/03 10:08:58;;;;;;;;;18.50;18.00;;;;;23.26;45.22;101306.69;5078300;27;45508;-50
2021/09/03 10:11:25;;;;;;;;;19.00;17.25;;;;;23.28;45.93;101303.97;5078283;28;46289;-50
2021/09/03 10:13:51;;;;;;;;;16.25;15.25;;;;;23.28;45.40;101304.81;5059830;28;45831;-51
2021/09/03 10:16:17;;;;;;;;;24.00;20.00;;;;;23.29;45.72;101295.09;5077887;28;45261;-52
2021/09/03 10:18:47;;;;;;;;;18.75;16.00;;;;;23.29;46.07;101295.09;5078176;27;45625;-51
2021/09/03 10:21:13;;;;;;;;;18.25;17.50;;;;;23.31;45.80;101298.50;5078004;27;46270;-49
2021/09/03 10:24:22;;;;;;;;;18.50;17.25;;;;;23.33;45.67;101296.59;5077753;28;45454;-53
2021/09/03 10:26:48;;;;;;;;;14.50;14.00;;;;;23.34;45.65;101297.47;5078016;28;45454;-49
2021/09/03 10:29:15;;;;;;;;;15.75;15.75;;;;;23.36;45.56;101295.59;5077986;28;45534;-54
2021/09/03 10:32:10;;;;;;;;;19.50;16.50;;;;;23.37;45.50;101303.41;5059391;28;48131;-52
2021/09/03 10:34:38;;;;;;;;;17.50;17.25;;;;;23.38;45.49;101299.84;5077511;28;45370;-49
2021/09/03 10:37:04;;;;;;;;;17.25;16.00;;;;;23.37;45.62;101292.00;5077716;28;45406;-51
2021/09/03 10:39:53;;;;;;;;;21.50;18.50;;;;;23.38;45.86;101289.25;5077788;28;45519;-52
2021/09/03 10:42:43;;;;;;;;;19.50;17.75;;;;;23.40;45.16;101303.25;5077530;27;46345;-50
2021/09/03 10:45:21;;;;;;;;;16.25;16.25;;;;;23.42;45.45;101297.84;5077611;28;45888;-51
2021/09/03 10:48:11;;;;;;;;;16.75;16.75;;;;;23.43;45.67;101287.16;5060092;28;45387;-50
2021/09/03 10:50:53;;;;;;;;;23.50;18.00;;;;;23.45;45.29;101289.72;5077597;27;45461;-55
2021/09/03 10:53:21;;;;;;;;;20.00;18.50;;;;;23.42;45.40;101276.69;5077300;28;46973;-52
2021/09/03 10:56:06;;;;;;;;;15.50;15.00;;;;;23.46;45.40;101286.97;5077489;28;45284;-51
2021/09/03 10:58:48;;;;;;;;;18.00;16.25;;;;;23.49;45.45;101293.88;5077357;28;45430;-50
2021/09/03 11:01:14;;;;;;;;;19.00;16.25;;;;;23.50;45.35;101287.66;5077068;27;45335;-51
2021/09/03 11:03:44;;;;;;;;;15.25;15.00;;;;;23.51;45.51;101277.94;5077132;28;46036;-49
2021/09/03 11:06:26;;;;;;;;;17.00;16.50;;;;;23.52;45.53;101279.63;5077120;27;45377;-49
2021/09/03 11:09:01;;;;;;;;;17.75;15.25;;;;;23.55;45.34;101272.34;5058793;28;45326;-51